AirNav   Air Wisconsin pilot careers
 
 262 users online  

HL2 Hubbard Landing Seaplane Base
Stockton, Alabama, USA

GOING TO STOCKTON?


FAA INFORMATION EFFECTIVE 03 JANUARY 2019

Location

FAA Identifier: HL2
Lat/Long: 31-03-49.0000N / 087-52-12.0000W
31-03.816667N / 087-52.200000W
31.0636111 / -87.8700000
(estimated)
Elevation: 8 ft. / 2 m (estimated)
From city: 5 miles SE of STOCKTON, AL
Time zone: UTC -6 (UTC -5 during Daylight Saving Time)
Zip code: 36579

Seaplane Base Operations

Seaplane Base use: Open to the public
Activation date: 01/2007
Control tower: no
ARTCC: HOUSTON CENTER
FSS: ANNISTON FLIGHT SERVICE STATION
NOTAMs facility: ANB (NOTAM-D service available)
Attendance: SR-SS
Segmented circle: no

Seaplane Base Communications

CTAF: 122.9

Nearby radio navigation aids

VOR radial/distance  VOR name  Freq  Var
BFMr015/28.7BROOKLEY VORTAC112.8004E
GCVr089/31.7GREENE COUNTY VORTAC115.7005E
SJIr046/32.3SEMMES VORTAC115.3005E
MVCr224/35.6MONROEVILLE VORTAC116.8004E

 
NDB name  Hdg/Dist  Freq  Var  ID
WISLE052/28.824801WMOB -- --- -...

Seaplane Base Services

Runway Information

Runway 16W/34W

Dimensions: 6000 x 300 ft. / 1829 x 91 m
Surface: water
RUNWAY 16W  RUNWAY 34W
Traffic pattern: leftleft

Seaplane Base Ownership and Management from official FAA records

Ownership: Privately-owned
Owner: PAUL L BRYARS, JR
9100 HUBBARDS LANDING ROAD
STOCKTON, AL 36579
Phone 251-937-5726
Manager: PAUL L. BRYARS JR.
9100 HUBBARD LANDING ROAD
STOCKTON, AL 36579
Phone 251-937-5726

Additional Remarks

TOUR BUOYS IN FRONT OF RAMP AREA.

Instrument Procedures

There are no published instrument procedures at HL2.

Some nearby airports with instrument procedures:

1R8 - Bay Minette Municipal Airport (12 nm S)
0R1 - Atmore Municipal Airport (22 nm E)
4R3 - Jackson Municipal Airport (24 nm N)
KBFM - Mobile Downtown Airport (28 nm S)
5R1 - Roy Wilcox Airport (29 nm NW)
 
Loc | Ops | Rwys | IFR | FBO | Links
Com | Nav | Svcs | Stats | Notes

Continental Motors
AirBoss

 
Area around HL2 (Hubbard Landing Seaplane Base)
 
Road maps at: MapQuest Bing Google
 
Aerial photo
No photo
 
Sectional chart

 
Airport distance calculator
Flying to Hubbard Landing Seaplane Base? Find the distance to fly.

From to HL2

Sunrise and sunset
Times for 21-Jan-2019
 Local
(UTC-6)
 Zulu
(UTC)
Morning civil twilight06:2412:24
Sunrise06:5012:50
Sunset17:1623:16
Evening civil twilight17:4223:42

Current date and time
Zulu (UTC)  21-Jan-2019 08:52:38
Local (UTC-6)  21-Jan-2019 02:52:38
 
METAR
KBFM 
29nm S 
210753Z AUTO 34006KT 10SM CLR 01/M02 A3034 RMK AO2 SLP272 T00061017
KMOB 
30nm SW 
210756Z AUTO 36004KT 10SM CLR M01/M03 RMK AO2 SLPNO T10061033 $
KCQF 
36nm S 
210835Z AUTO 01003KT 10SM CLR 00/M03 A3032 RMK AO2
KGZH 
47nm NE 
210753Z AUTO 33004KT 10SM CLR M01/M04 A3031 RMK AO2 SLP264 T10061039
KJKA 
48nm S 
210835Z AUTO 00000KT 10SM CLR M01/M03 A3032 RMK AO2 T10081030
KNSE 
49nm SE 
201756Z AUTO 34011G22KT 10SM OVC023 03/M02 A3019 RMK AO2 SLP212 T00331017 10033 20028 51018 $
KNDZ 
49nm SE 
210756Z AUTO 33005KT 10SM CLR M02/M04 A3031 RMK AO2 SLP254 T10171039 FZRANO $
KPQL 
50nm SW 
210753Z AUTO 01003KT 10SM CLR M01/M03 A3032 RMK AO2 SLP270 T10061028
KPNS 
50nm SE 
210753Z AUTO 36008KT 10SM CLR 02/M04 A3031 RMK AO2 SLP265 T00171039
TAF
KBFM 
29nm S 
210526Z 2106/2206 36005KT P6SM SKC FM211500 05007KT P6SM SKC
KMOB 
30nm SW 
210526Z 2106/2206 35005KT P6SM SKC FM211500 05007KT P6SM SKC
NOTAMs
Click for the latest NOTAMs
NOTAMs are issued by the DoD/FAA and will open in a separate window not controlled by AirNav.

 

 
 

Would you like to see your business listed on this page?

 If your business provides an interesting product or service to pilots, flight crews, aircraft, or users of the Hubbard Landing Seaplane Base, you should consider listing it here.  To start the listing process, click on the button below
 
Add a business
 

Other Pages about Hubbard Landing Seaplane Base

Update a link
 
Copyright © AirNav, LLC. All rights reserved. Privacy Policy  Contact